Weather at Ministro Pistarini International Airport

Public forecast

Using degrees Celsius for public forecast. Weather courtesy of forecast.io.

Current aviation weather report (METAR) for Ministro Pistarini International Airport

Retrieved 2021/06/15 07:00 UTC (7 minutes ago):

SAEZ 150700Z 23004KT 9999 FEW030 04/03 Q1027 NOSIG

Aviation forecast (TAF) for Ministro Pistarini International Airport

Retrieved 2021/06/15 06:00 UTC (1 hour ago):

TAF SAEZ 150500Z 1506/1606 18005KT 9999 BKN040 TX12/1518Z TN03/1510Z TEMPO 1515/1520 18010KT 9999 SCT010 BKN030